Time;durP1;ratioP1;P1;durP2;ratioP2;P2;SDS_P1;SDS_P2;PMS_P1;PMS_P2;Temp;Humidity;BMP_temperature;BMP_pressure;BME280_temperature;BME280_humidity;BME280_pressure;Samples;Min_cycle;Max_cycle;Signal;HPM_P1;HPM_P2
2022/05/04 00:00:42;;;;;;;5.35;1.67;;;;;;;12.04;42.49;98310.28;4934144;28;20061;-72
2022/05/04 00:03:09;;;;;;;4.35;1.60;;;;;;;12.09;42.55;98314.78;4970513;28;20566;-71
2022/05/04 00:05:36;;;;;;;7.68;2.10;;;;;;;12.19;42.38;98317.22;4971352;28;20054;-73
2022/05/04 00:08:03;;;;;;;6.00;1.90;;;;;;;12.30;42.15;98326.72;4955117;28;20587;-71
2022/05/04 00:10:30;;;;;;;6.55;1.70;;;;;;;12.22;42.38;98310.28;4973496;28;20491;-71
2022/05/04 00:12:57;;;;;;;7.68;1.83;;;;;;;12.12;42.70;98330.59;4981498;28;20046;-71
2022/05/04 00:15:23;;;;;;;6.45;1.90;;;;;;;12.05;42.88;98331.06;4971004;28;20055;-71
2022/05/04 00:17:49;;;;;;;3.42;1.50;;;;;;;12.00;42.68;98317.50;4955088;28;20055;-69
2022/05/04 00:20:16;;;;;;;6.47;2.05;;;;;;;12.10;42.88;98332.84;4953383;28;20043;-69
2022/05/04 00:22:43;;;;;;;6.32;1.83;;;;;;;12.12;42.68;98336.06;4971509;28;20042;-71
2022/05/04 00:25:10;;;;;;;4.97;1.83;;;;;;;12.13;42.47;98321.22;4954128;28;20074;-70
2022/05/04 00:27:37;;;;;;;;;;;;;;;12.19;42.41;98330.94;4922580;28;20534;-68
2022/05/04 00:30:05;;;;;;;7.97;2.10;;;;;;;12.16;42.41;98326.88;4939510;28;19926;-71
2022/05/04 00:32:31;;;;;;;5.90;1.70;;;;;;;12.13;42.33;98330.28;4970575;28;20141;-73
2022/05/04 00:34:57;;;;;;;4.35;1.60;;;;;;;12.13;42.45;98333.00;4968278;28;20047;-72
2022/05/04 00:37:24;;;;;;;5.90;2.05;;;;;;;12.14;42.47;98320.09;4968948;28;20348;-73
2022/05/04 00:39:51;;;;;;;5.77;1.70;;;;;;;12.14;42.43;98333.81;4971808;28;20411;-73
2022/05/04 00:42:19;;;;;;;7.72;2.10;;;;;;;12.11;42.73;98338.00;4966962;28;20318;-72
2022/05/04 00:44:53;;;;;;;5.47;1.45;;;;;;;12.05;42.98;98329.13;4968936;28;20399;-73
2022/05/04 00:47:23;;;;;;;3.85;1.50;;;;;;;12.08;43.08;98335.88;4952177;28;20081;-73
2022/05/04 00:49:50;;;;;;;6.40;1.70;;;;;;;12.04;43.25;98333.00;4926272;28;20061;-72
2022/05/04 00:52:18;;;;;;;7.10;1.65;;;;;;;12.08;43.16;98318.66;4968978;28;20419;-72
2022/05/04 00:54:49;;;;;;;10.35;2.03;;;;;;;12.10;43.30;98330.91;4921917;28;20541;-73
2022/05/04 00:58:54;;;;;;;5.32;1.88;;;;;;;12.09;43.42;98317.53;4969339;28;20071;-72
2022/05/04 01:00:05;;;;;;;10.23;1.98;;;;;;;11.98;43.68;98311.53;4967344;28;20054;-71
2022/05/04 01:02:32;;;;;;;4.40;1.60;;;;;;;12.08;43.59;98324.94;4968380;28;20408;-72
2022/05/04 01:04:58;;;;;;;7.82;2.30;;;;;;;12.03;43.09;98304.00;4970039;28;20046;-71
2022/05/04 01:07:24;;;;;;;7.28;2.00;;;;;;;12.03;43.14;98314.13;4969397;28;20035;-72
2022/05/04 01:09:50;;;;;;;6.07;2.00;;;;;;;12.04;43.00;98311.09;4933986;29;20047;-72
2022/05/04 01:12:21;;;;;;;3.70;1.40;;;;;;;12.05;42.97;98309.97;4945689;28;20053;-71
2022/05/04 01:14:48;;;;;;;7.05;1.52;;;;;;;12.02;43.04;98310.59;4952702;28;20051;-73
2022/05/04 01:17:14;;;;;;;8.35;2.33;;;;;;;11.98;42.90;98312.31;4952114;28;20624;-73
2022/05/04 01:19:40;;;;;;;4.95;1.73;;;;;;;12.00;42.68;98312.00;4920915;28;20431;-73
2022/05/04 01:22:09;;;;;;;8.32;2.17;;;;;;;11.96;42.57;98313.78;4965275;28;20128;-72
2022/05/04 01:24:35;;;;;;;7.88;2.58;;;;;;;11.92;42.52;98310.88;4951615;28;20070;-69
2022/05/04 01:27:01;;;;;;;9.45;2.30;;;;;;;11.92;42.59;98305.41;4968869;28;20051;-71
2022/05/04 01:29:27;;;;;;;5.75;1.80;;;;;;;11.90;42.56;98315.88;4969100;28;20141;-71
2022/05/04 01:31:54;;;;;;;6.22;2.03;;;;;;;11.88;42.44;98323.59;4949800;28;20157;-71
2022/05/04 01:34:21;;;;;;;7.27;2.07;;;;;;;11.82;42.68;98325.69;4931505;28;20048;-72
2022/05/04 01:36:47;;;;;;;8.15;2.72;;;;;;;11.82;42.63;98328.44;4978727;28;20455;-71
2022/05/04 01:39:14;;;;;;;11.07;2.15;;;;;;;11.82;42.34;98313.91;4953763;28;20061;-73
2022/05/04 01:44:25;;;;;;;6.97;2.17;;;;;;;11.75;42.63;98325.34;4966432;28;20070;-72
2022/05/04 01:46:51;;;;;;;10.73;2.50;;;;;;;11.71;42.59;98322.44;4969986;28;20050;-72
2022/05/04 01:49:17;;;;;;;10.35;2.17;;;;;;;11.68;42.73;98325.78;4953044;28;20051;-71
2022/05/04 01:51:44;;;;;;;7.82;1.98;;;;;;;11.66;42.91;98325.31;4966550;28;20047;-72
2022/05/04 01:54:10;;;;;;;5.38;1.95;;;;;;;11.53;43.18;98309.81;4965139;28;20518;-72
2022/05/04 01:56:37;;;;;;;8.00;2.13;;;;;;;11.49;43.10;98310.47;4948262;28;20058;-73
2022/05/04 01:59:04;;;;;;;7.32;2.00;;;;;;;11.64;43.12;98327.56;4973934;28;20138;-72
2022/05/04 02:01:31;;;;;;;11.00;2.78;;;;;;;11.61;43.00;98323.53;4950352;28;20498;-72
2022/05/04 02:03:57;;;;;;;11.95;2.63;;;;;;;11.56;43.25;98331.91;4966992;28;20051;-74
2022/05/04 02:06:24;;;;;;;7.70;2.37;;;;;;;11.56;43.40;98340.09;4968585;28;20231;-72
2022/05/04 02:08:51;;;;;;;6.50;2.00;;;;;;;11.49;43.62;98335.09;4960310;28;20046;-73
2022/05/04 02:11:18;;;;;;;9.98;2.70;;;;;;;11.47;43.85;98331.88;4970633;28;20077;-72
2022/05/04 02:13:44;;;;;;;9.23;2.28;;;;;;;11.47;43.80;98328.31;4968400;28;20112;-71
2022/05/04 02:16:11;;;;;;;12.48;2.67;;;;;;;11.44;44.26;98335.25;4968922;28;20051;-69
2022/05/04 02:18:37;;;;;;;8.25;2.67;;;;;;;11.33;44.53;98331.97;4935661;28;20054;-71
2022/05/04 02:21:03;;;;;;;13.00;2.93;;;;;;;11.33;44.53;98334.72;4931887;28;20054;-73
2022/05/04 02:23:29;;;;;;;17.00;3.05;;;;;;;11.41;44.43;98340.53;4968977;28;20309;-71
2022/05/04 02:25:55;;;;;;;9.50;2.42;;;;;;;11.39;44.74;98340.84;4969934;28;20047;-69
2022/05/04 02:28:22;;;;;;;15.43;2.92;;;;;;;11.27;44.90;98335.97;4966920;28;20062;-73
2022/05/04 02:30:48;;;;;;;10.25;2.60;;;;;;;11.34;44.91;98346.47;4955044;28;20050;-71
2022/05/04 02:33:15;;;;;;;8.02;2.20;;;;;;;11.32;45.11;98352.25;4955889;28;20105;-71
2022/05/04 02:38:27;;;;;;;10.70;2.25;;;;;;;11.39;45.01;98349.03;4949657;28;20055;-70
2022/05/04 02:40:53;;;;;;;7.13;2.20;;;;;;;11.28;45.51;98348.53;4952813;28;20046;-72
2022/05/04 02:43:20;;;;;;;11.20;2.10;;;;;;;11.13;45.38;98341.53;4968680;28;20443;-72
2022/05/04 02:45:46;;;;;;;9.30;2.22;;;;;;;11.12;45.28;98350.06;4967689;28;20051;-71
2022/05/04 02:48:13;;;;;;;8.13;2.10;;;;;;;11.12;45.49;98356.34;4969689;28;20053;-70
2022/05/04 02:50:39;;;;;;;6.70;1.85;;;;;;;11.14;45.47;98358.75;4967911;28;20070;-71
2022/05/04 02:53:05;;;;;;;6.45;1.77;;;;;;;11.15;45.28;98358.44;4967239;28;20059;-72
2022/05/04 02:55:32;;;;;;;8.57;2.00;;;;;;;11.28;45.13;98364.16;4970519;28;20125;-69
2022/05/04 02:57:58;;;;;;;6.13;2.15;;;;;;;11.27;44.97;98354.31;4968639;28;20063;-70
2022/05/04 03:00:25;;;;;;;7.35;1.80;;;;;;;11.41;44.55;98362.44;4968069;28;20051;-72
2022/05/04 03:02:51;;;;;;;6.40;1.88;;;;;;;11.43;44.15;98361.00;4965059;28;20070;-71
2022/05/04 03:05:18;;;;;;;9.02;1.80;;;;;;;11.45;43.92;98368.88;4971040;28;20150;-71
2022/05/04 03:07:46;;;;;;;6.60;1.77;;;;;;;11.45;43.84;98377.09;4952651;28;20141;-72
2022/05/04 03:10:13;;;;;;;6.22;1.63;;;;;;;11.38;43.59;98377.53;4966195;28;20051;-70
2022/05/04 03:12:40;;;;;;;5.75;2.05;;;;;;;11.37;43.41;98375.91;4966251;28;20046;-70
2022/05/04 03:15:08;;;;;;;7.50;1.85;;;;;;;11.40;43.17;98380.78;4951931;28;20149;-73
2022/05/04 03:17:35;;;;;;;9.57;2.55;;;;;;;11.44;43.21;98389.97;4969036;28;20049;-71
2022/05/04 03:20:02;;;;;;;6.55;2.15;;;;;;;11.48;42.89;98396.44;4937342;28;20098;-72
2022/05/04 03:22:32;;;;;;;6.82;1.95;;;;;;;11.52;42.91;98388.41;4934640;28;20081;-70
2022/05/04 03:24:58;;;;;;;5.30;1.80;;;;;;;11.60;42.73;98389.56;4972834;28;20043;-71
2022/05/04 03:27:24;;;;;;;7.97;1.80;;;;;;;11.57;42.79;98395.66;4925514;28;20057;-72
2022/05/04 03:29:51;;;;;;;7.78;1.95;;;;;;;11.60;42.70;98397.78;4973065;28;20542;-72
2022/05/04 03:32:17;;;;;;;9.32;1.83;;;;;;;11.60;42.77;98395.81;4946833;28;20043;-71
2022/05/04 03:34:43;;;;;;;7.93;2.15;;;;;;;11.63;42.66;98402.59;4951609;28;20055;-71
2022/05/04 03:37:10;;;;;;;4.47;1.63;;;;;;;11.56;42.84;98405.00;4970038;28;20082;-70
2022/05/04 03:39:37;;;;;;;4.77;1.50;;;;;;;11.63;42.76;98400.69;4955792;28;20058;-71
2022/05/04 03:42:04;;;;;;;8.10;2.20;;;;;;;11.61;42.74;98394.69;4954128;28;20080;-71
2022/05/04 03:44:30;;;;;;;7.47;1.80;;;;;;;11.61;42.70;98394.69;4969598;28;20582;-71
2022/05/04 03:46:56;;;;;;;4.38;1.70;;;;;;;11.62;42.74;98403.72;4969557;28;20137;-71
2022/05/04 03:49:23;;;;;;;6.93;2.08;;;;;;;11.57;42.93;98395.66;4953546;28;20166;-71
2022/05/04 03:51:50;;;;;;;10.70;1.85;;;;;;;11.47;43.47;98399.47;4955304;28;20049;-72
2022/05/04 03:54:16;;;;;;;8.40;1.73;;;;;;;11.59;43.49;98412.59;4968354;28;20121;-72
2022/05/04 03:56:43;;;;;;;8.05;1.88;;;;;;;11.59;43.79;98407.09;4973568;28;20066;-71
2022/05/04 03:59:10;;;;;;;4.60;1.70;;;;;;;11.57;43.89;98412.88;4973672;28;20047;-72
2022/05/04 04:01:36;;;;;;;6.13;1.80;;;;;;;11.55;44.07;98409.66;4953328;28;20042;-72
2022/05/04 04:04:03;;;;;;;7.65;2.45;;;;;;;11.56;44.45;98411.28;4986179;28;20082;-70
2022/05/04 04:06:30;;;;;;;8.27;1.92;;;;;;;11.54;44.36;98407.22;4971774;28;20130;-71
2022/05/04 04:08:56;;;;;;;7.53;1.80;;;;;;;11.60;44.31;98406.78;4955625;28;20388;-72
2022/05/04 04:11:22;;;;;;;6.97;1.73;;;;;;;11.69;44.27;98400.53;4952572;28;20636;-73
2022/05/04 04:13:49;;;;;;;8.23;1.40;;;;;;;11.70;44.30;98411.16;4951083;28;20479;-73
2022/05/04 04:16:16;;;;;;;7.75;1.70;;;;;;;11.72;44.24;98413.59;4969611;28;20062;-72
2022/05/04 04:18:42;;;;;;;3.47;1.30;;;;;;;11.74;44.17;98416.81;4968279;28;20047;-71
2022/05/04 04:23:53;;;;;;;5.90;1.67;;;;;;;11.83;44.07;98411.38;4966544;28;20046;-72
2022/05/04 04:26:19;;;;;;;3.28;1.48;;;;;;;11.84;44.04;98411.06;4952912;28;20078;-71
2022/05/04 04:28:45;;;;;;;7.60;2.10;;;;;;;11.90;43.88;98409.00;4962481;28;20360;-73
2022/05/04 04:31:12;;;;;;;6.25;1.90;;;;;;;11.95;43.75;98410.78;4950813;28;20230;-71
2022/05/04 04:33:39;;;;;;;6.38;1.70;;;;;;;12.01;43.72;98420.47;4952243;28;20451;-71
2022/05/04 04:36:06;;;;;;;5.90;1.60;;;;;;;12.03;43.81;98415.50;4971384;28;20222;-71
2022/05/04 04:38:32;;;;;;;6.75;1.83;;;;;;;12.05;43.97;98418.72;4972630;28;20051;-72
2022/05/04 04:40:58;;;;;;;5.28;1.70;;;;;;;12.07;43.99;98429.38;4969604;28;20046;-72
2022/05/04 04:43:25;;;;;;;7.63;1.80;;;;;;;12.03;44.06;98426.44;4953327;28;20060;-72
2022/05/04 04:45:51;;;;;;;7.25;1.70;;;;;;;12.02;43.94;98439.34;4950523;29;20314;-71
2022/05/04 04:48:18;;;;;;;7.78;2.20;;;;;;;12.03;43.97;98440.16;4965371;28;20113;-70
2022/05/04 04:50:45;;;;;;;6.93;1.90;;;;;;;12.04;44.00;98442.59;4971137;28;20057;-71
2022/05/04 04:53:12;;;;;;;5.22;1.60;;;;;;;11.97;44.10;98433.97;4969736;28;20490;-71
2022/05/04 04:55:40;;;;;;;6.40;1.80;;;;;;;12.02;44.18;98450.31;4954211;28;20058;-71
2022/05/04 04:58:07;;;;;;;8.32;1.58;;;;;;;12.04;44.27;98449.97;4971311;28;20102;-70
2022/05/04 05:00:34;;;;;;;5.80;1.80;;;;;;;12.01;44.27;98456.06;4968045;28;20073;-70
2022/05/04 05:03:01;;;;;;;7.45;1.90;;;;;;;11.95;44.57;98457.34;4962103;28;20051;-70
2022/05/04 05:05:27;;;;;;;7.70;1.85;;;;;;;11.85;44.76;98469.38;4962235;28;20115;-71
2022/05/04 05:07:54;;;;;;;3.80;1.48;;;;;;;11.87;44.93;98458.94;4954197;28;20043;-70
2022/05/04 05:10:20;;;;;;;10.02;1.60;;;;;;;11.87;44.70;98453.44;4968288;28;20052;-70
2022/05/04 05:12:50;;;;;;;3.47;1.30;;;;;;;11.66;45.00;98451.25;4968948;28;20078;-71
2022/05/04 05:18:01;;;;;;;4.95;1.52;;;;;;;11.53;44.79;98441.19;4968682;28;20077;-70
2022/05/04 05:20:30;;;;;;;3.25;1.30;;;;;;;11.51;44.60;98448.91;4938098;28;20057;-71
2022/05/04 05:22:57;;;;;;;5.25;1.50;;;;;;;11.61;44.27;98454.13;4971091;28;20538;-70
2022/05/04 05:25:23;;;;;;;6.05;1.90;;;;;;;11.68;44.00;98453.69;4958116;28;20051;-70
2022/05/04 05:27:50;;;;;;;4.80;1.50;;;;;;;11.59;44.34;98456.38;4969370;28;20055;-71
2022/05/04 05:30:16;;;;;;;7.90;1.67;;;;;;;11.46;44.56;98452.59;4953766;28;20038;-71
2022/05/04 05:32:42;;;;;;;6.55;1.60;;;;;;;11.44;44.52;98457.56;4950752;28;20145;-71
2022/05/04 05:35:09;;;;;;;7.78;1.80;;;;;;;11.54;44.52;98456.50;4949354;28;20105;-69
2022/05/04 05:37:36;;;;;;;6.00;1.80;;;;;;;11.49;44.65;98455.50;4956183;28;20077;-69
2022/05/04 05:40:02;;;;;;;5.57;1.80;;;;;;;11.57;44.34;98462.16;4968037;28;20090;-68
2022/05/04 05:42:29;;;;;;;6.35;1.80;;;;;;;11.71;44.18;98466.75;4954617;28;20046;-70
2022/05/04 05:44:55;;;;;;;6.30;1.90;;;;;;;11.71;43.99;98467.56;4969720;28;20129;-70
2022/05/04 05:47:22;;;;;;;11.73;2.63;;;;;;;11.79;43.97;98474.19;4968096;28;20058;-70
2022/05/04 05:49:48;;;;;;;9.93;2.42;;;;;;;11.87;44.24;98476.16;4966065;28;20520;-69
2022/05/04 05:52:14;;;;;;;10.13;2.30;;;;;;;11.82;44.46;98475.47;4969692;28;20491;-70
2022/05/04 05:54:41;;;;;;;7.38;2.55;;;;;;;11.81;44.44;98476.59;4964502;28;20074;-71
2022/05/04 05:57:08;;;;;;;16.35;2.58;;;;;;;11.80;44.60;98475.00;4968136;28;20062;-73
2022/05/04 05:59:34;;;;;;;6.93;2.10;;;;;;;11.74;44.94;98477.06;4969212;28;20131;-72
2022/05/04 06:02:00;;;;;;;13.43;2.30;;;;;;;11.90;44.86;98474.72;4953877;28;20046;-71
2022/05/04 06:04:27;;;;;;;9.20;2.25;;;;;;;11.67;45.02;98473.97;4963377;28;20495;-72
2022/05/04 06:06:54;;;;;;;9.30;2.13;;;;;;;11.63;45.20;98482.00;4941929;28;20059;-72
2022/05/04 06:09:20;;;;;;;14.63;2.33;;;;;;;11.64;45.14;98483.63;4970988;28;20066;-71
2022/05/04 06:11:47;;;;;;;9.00;2.00;;;;;;;11.70;44.67;98482.34;4966633;28;20047;-71
2022/05/04 06:14:14;;;;;;;10.68;2.80;;;;;;;11.77;44.37;98490.09;4970801;28;20043;-72
2022/05/04 06:16:40;;;;;;;9.45;2.78;;;;;;;11.87;44.39;98494.53;4967196;28;20047;-70
2022/05/04 06:19:06;;;;;;;16.80;3.25;;;;;;;11.88;44.72;98488.72;4964345;28;20047;-70
2022/05/04 06:21:32;;;;;;;10.98;2.75;;;;;;;11.91;44.26;98484.56;4969372;28;20498;-71
2022/05/04 06:23:59;;;;;;;7.20;2.40;;;;;;;11.99;43.85;98493.94;4971163;28;20142;-70
2022/05/04 06:26:25;;;;;;;11.77;2.42;;;;;;;11.97;43.97;98483.28;4954320;28;20058;-70
2022/05/04 06:28:52;;;;;;;9.35;2.20;;;;;;;11.97;43.36;98477.78;4951418;28;20447;-72
2022/05/04 06:34:12;;;;;;;7.53;2.50;;;;;;;12.17;42.80;98479.19;4971000;28;19926;-70
2022/05/04 06:36:40;;;;;;;15.90;2.17;;;;;;;12.22;42.79;98475.50;4921939;28;20074;-70
2022/05/04 06:39:06;;;;;;;;;;;;;;;12.27;42.77;98486.31;4966190;28;20162;-71
2022/05/04 06:41:33;;;;;;;5.37;1.60;;;;;;;12.25;42.83;98474.88;4966659;28;20318;-70
2022/05/04 06:44:00;;;;;;;5.75;1.80;;;;;;;12.38;42.15;98477.81;4942270;28;20317;-70
2022/05/04 06:46:26;;;;;;;11.13;2.22;;;;;;;12.48;41.60;98481.03;4951323;28;20054;-70
2022/05/04 06:48:52;;;;;;;8.18;1.95;;;;;;;12.68;41.43;98486.25;4948705;28;20046;-69
2022/05/04 06:51:18;;;;;;;11.50;2.00;;;;;;;12.73;40.89;98475.09;4985568;28;20054;-70
2022/05/04 06:53:45;;;;;;;10.25;2.20;;;;;;;12.89;40.66;98498.19;4973049;28;20042;-71
2022/05/04 06:56:11;;;;;;;8.38;2.00;;;;;;;12.97;40.58;98504.81;4972532;28;20408;-71
2022/05/04 06:58:37;;;;;;;17.92;2.10;;;;;;;13.09;40.35;98509.63;4972053;28;20495;-69
2022/05/04 07:01:06;;;;;;;15.93;1.98;;;;;;;12.97;40.74;98501.28;4974326;28;20054;-71
2022/05/04 07:03:33;;;;;;;22.50;2.00;;;;;;;12.74;42.00;98513.19;4968129;28;20059;-70
2022/05/04 07:05:59;;;;;;;11.02;1.75;;;;;;;12.67;42.03;98523.81;4966019;28;20051;-70
2022/05/04 07:08:25;;;;;;;10.38;1.80;;;;;;;12.66;41.85;98529.63;4971808;28;20495;-69
2022/05/04 07:10:52;;;;;;;7.32;1.60;;;;;;;12.65;41.81;98528.03;4956116;28;20051;-69
2022/05/04 07:13:18;;;;;;;4.22;1.60;;;;;;;12.71;41.36;98524.78;4958840;28;20483;-70
2022/05/04 07:15:44;;;;;;;11.75;1.75;;;;;;;12.79;40.94;98525.91;4970387;28;20053;-71
2022/05/04 07:18:11;;;;;;;4.07;1.50;;;;;;;12.75;40.62;98519.47;4972805;28;20105;-71
2022/05/04 07:20:37;;;;;;;8.75;1.38;;;;;;;12.77;40.44;98530.91;4943099;28;20058;-71
2022/05/04 07:23:03;;;;;;;15.50;1.85;;;;;;;12.80;40.67;98540.44;4973866;28;20089;-70
2022/05/04 07:25:29;;;;;;;7.60;1.58;;;;;;;12.85;40.55;98549.34;4934980;29;20067;-73
2022/05/04 07:27:56;;;;;;;5.95;1.60;;;;;;;12.97;40.21;98561.63;4955657;28;20082;-72
2022/05/04 07:30:22;;;;;;;11.50;2.10;;;;;;;12.88;41.01;98556.91;4973167;28;20065;-70
2022/05/04 07:32:49;;;;;;;6.90;1.70;;;;;;;12.98;40.74;98571.47;4973534;28;20073;-73
2022/05/04 07:35:17;;;;;;;10.88;1.77;;;;;;;12.95;40.94;98561.94;4954771;28;20482;-73
2022/05/04 07:37:43;;;;;;;5.85;1.92;;;;;;;13.02;40.64;98581.44;4933226;28;20043;-73
2022/05/04 07:42:57;;;;;;;10.63;2.22;;;;;;;13.34;39.87;98584.06;4970247;28;20046;-73
2022/05/04 07:45:23;;;;;;;9.63;2.70;;;;;;;13.48;39.50;98583.94;4973365;28;20129;-69
2022/05/04 07:47:49;;;;;;;18.90;2.55;;;;;;;13.54;39.20;98574.41;4966275;28;20306;-70
2022/05/04 07:50:17;;;;;;;7.78;2.15;;;;;;;13.56;39.20;98571.31;4965051;28;20062;-72
2022/05/04 07:52:43;;;;;;;12.20;2.03;;;;;;;13.41;39.53;98580.84;4952293;28;20047;-72
2022/05/04 07:55:10;;;;;;;8.48;1.70;;;;;;;13.43;39.11;98587.66;4959104;28;20058;-70
2022/05/04 07:57:37;;;;;;;14.60;1.90;;;;;;;13.29;39.20;98589.72;4966210;28;20055;-72
2022/05/04 08:05:39;;;;;;;4.80;1.60;;;;;;;13.49;38.17;98593.78;4965624;28;20074;-71
2022/05/04 08:08:06;;;;;;;10.88;1.83;;;;;;;13.55;37.80;98605.41;4949489;28;20047;-70
2022/05/04 08:10:33;;;;;;;10.75;1.80;;;;;;;13.46;37.64;98611.72;4951876;29;20050;-71
2022/05/04 08:12:59;;;;;;;10.13;2.15;;;;;;;13.28;37.82;98608.13;4964933;28;20074;-71
2022/05/04 08:15:26;;;;;;;6.03;1.70;;;;;;;13.29;37.99;98622.66;4969035;28;20137;-70
2022/05/04 08:17:52;;;;;;;12.38;1.85;;;;;;;13.25;38.25;98614.25;4969465;28;20503;-72
2022/05/04 08:20:19;;;;;;;12.27;2.20;;;;;;;13.17;38.40;98626.03;4967703;28;20062;-71
2022/05/04 08:22:47;;;;;;;13.30;1.70;;;;;;;13.25;38.19;98630.72;4972371;28;20055;-71
2022/05/04 08:25:13;;;;;;;7.97;1.73;;;;;;;13.40;37.65;98632.19;4972645;28;20046;-70
2022/05/04 08:27:40;;;;;;;12.43;2.10;;;;;;;13.43;37.51;98625.25;4970897;28;20134;-71
2022/05/04 08:30:07;;;;;;;11.48;3.28;;;;;;;13.43;37.09;98637.09;4953882;28;20082;-72
2022/05/04 08:32:40;;;;;;;6.93;2.00;;;;;;;13.61;36.59;98629.63;4968590;28;20050;-72
2022/05/04 08:35:07;;;;;;;6.32;2.05;;;;;;;13.74;36.60;98635.28;4952030;29;20143;-72
2022/05/04 08:37:33;;;;;;;7.32;1.88;;;;;;;13.79;36.22;98631.56;4968762;28;20081;-73
2022/05/04 08:40:00;;;;;;;6.03;1.70;;;;;;;13.90;36.23;98636.41;4972180;28;20079;-72
2022/05/04 08:42:27;;;;;;;7.82;1.88;;;;;;;14.05;36.06;98637.03;4972930;28;20065;-73
2022/05/04 08:44:57;;;;;;;5.25;1.85;;;;;;;14.13;36.02;98641.72;4953094;28;20237;-71
2022/05/04 08:47:26;;;;;;;7.22;2.03;;;;;;;14.29;35.56;98643.94;4969099;28;20133;-70
2022/05/04 08:49:52;;;;;;;13.07;2.15;;;;;;;14.24;35.56;98628.41;4953062;28;20050;-72
2022/05/04 08:52:21;;;;;;;8.77;1.90;;;;;;;14.37;35.04;98643.09;4968711;28;20066;-71
2022/05/04 08:54:49;;;;;;;7.10;1.92;;;;;;;14.42;34.65;98637.41;4970231;28;20054;-69
2022/05/04 08:57:16;;;;;;;7.55;1.60;;;;;;;14.60;33.42;98638.16;4969524;28;20396;-71
2022/05/04 08:59:43;;;;;;;10.52;1.95;;;;;;;14.72;33.26;98631.19;4953910;28;20129;-71
2022/05/04 09:02:11;;;;;;;10.07;1.92;;;;;;;14.79;32.48;98631.44;4947766;28;20146;-71
2022/05/04 09:04:41;;;;;;;4.68;1.63;;;;;;;14.89;32.05;98636.59;4953208;28;20047;-74
2022/05/04 09:07:20;;;;;;;9.57;2.20;;;;;;;14.97;31.43;98637.69;4953638;28;20574;-72
2022/05/04 09:09:47;;;;;;;16.88;2.15;;;;;;;14.99;31.38;98649.16;4946698;28;20042;-68
2022/05/04 09:12:15;;;;;;;11.52;2.25;;;;;;;14.81;31.26;98636.63;4966347;28;20601;-68
2022/05/04 09:14:42;;;;;;;13.77;2.03;;;;;;;14.46;32.29;98665.88;4949956;28;20073;-69
2022/05/04 09:17:10;;;;;;;15.00;2.30;;;;;;;14.34;32.67;98671.25;4951580;28;20579;-68
2022/05/04 09:19:36;;;;;;;14.13;2.00;;;;;;;13.97;33.47;98685.38;4965513;28;20082;-68
2022/05/04 09:22:14;;;;;;;9.07;1.80;;;;;;;13.78;34.24;98702.19;4964533;28;20043;-68
2022/05/04 09:24:44;;;;;;;8.20;1.98;;;;;;;13.68;34.84;98681.34;4962803;28;20145;-68
2022/05/04 09:27:10;;;;;;;16.35;2.42;;;;;;;13.36;36.17;98682.59;4968070;28;20453;-67
2022/05/04 09:29:42;;;;;;;13.60;2.23;;;;;;;13.51;36.43;98717.03;4967767;28;20054;-67
2022/05/04 09:32:15;;;;;;;8.13;2.00;;;;;;;13.60;36.55;98729.63;4969506;28;20078;-67
2022/05/04 09:34:44;;;;;;;14.23;2.60;;;;;;;13.78;36.53;98728.84;4968895;28;20063;-67
2022/05/04 09:45:38;;;;;;;6.28;2.40;;;;;;;14.54;34.60;98755.00;4959836;28;20482;-73
2022/05/04 09:48:05;;;;;;;8.20;1.90;;;;;;;14.59;34.08;98745.75;4962271;28;20404;-73
2022/05/04 09:50:38;;;;;;;6.45;1.70;;;;;;;14.66;33.89;98740.56;4968833;28;20087;-73
2022/05/04 09:53:05;;;;;;;6.38;1.80;;;;;;;14.70;33.64;98743.47;4954343;28;20045;-72
2022/05/04 09:55:31;;;;;;;7.15;1.42;;;;;;;14.71;33.32;98745.91;4965640;28;20052;-74
2022/05/04 09:57:58;;;;;;;21.97;2.00;;;;;;;14.75;33.00;98751.56;4954425;28;20121;-74
2022/05/04 10:00:26;;;;;;;4.18;1.42;;;;;;;14.82;33.10;98762.06;4936490;28;20286;-73
2022/05/04 10:02:56;;;;;;;4.25;1.48;;;;;;;15.05;32.48;98748.03;4965754;28;20125;-75
2022/05/04 10:05:23;;;;;;;4.72;1.50;;;;;;;15.31;31.96;98751.50;4953428;28;20054;-73
2022/05/04 10:07:52;;;;;;;7.20;1.48;;;;;;;15.57;31.25;98749.72;4970724;28;20058;-73
2022/05/04 10:10:20;;;;;;;6.85;1.60;;;;;;;15.59;31.04;98753.75;4969409;28;20067;-73
2022/05/04 10:12:47;;;;;;;10.77;1.85;;;;;;;15.42;30.89;98751.13;4954044;28;20043;-74
2022/05/04 10:15:15;;;;;;;7.72;1.75;;;;;;;15.30;30.43;98760.09;4954534;28;20074;-73
2022/05/04 10:17:47;;;;;;;5.10;1.40;;;;;;;15.26;30.10;98762.69;4977985;28;20053;-72
2022/05/04 10:20:18;;;;;;;10.60;1.90;;;;;;;15.15;29.61;98762.28;4977567;28;20179;-72
2022/05/04 10:22:50;;;;;;;8.23;1.70;;;;;;;15.28;29.49;98765.09;4933260;28;20467;-73
2022/05/04 10:25:17;;;;;;;6.32;1.58;;;;;;;15.49;29.22;98756.91;4980641;28;20050;-73
2022/05/04 10:27:46;;;;;;;7.72;1.65;;;;;;;15.69;29.02;98757.28;4965845;28;20051;-73
2022/05/04 10:30:31;;;;;;;6.70;1.65;;;;;;;15.88;28.77;98757.63;4973831;28;20089;-73
2022/05/04 10:32:59;;;;;;;4.40;1.75;;;;;;;15.78;28.67;98760.75;4973816;28;20054;-74
2022/05/04 10:35:35;;;;;;;11.43;1.92;;;;;;;15.77;28.69;98764.66;4952505;28;20054;-74
2022/05/04 10:38:07;;;;;;;5.43;1.80;;;;;;;15.72;28.93;98765.66;4970401;28;20459;-73
2022/05/04 10:40:36;;;;;;;10.27;2.20;;;;;;;15.87;28.66;98767.03;4959350;28;20105;-74
2022/05/04 10:43:04;;;;;;;7.38;1.92;;;;;;;15.90;28.25;98749.03;4973216;28;20040;-73
2022/05/04 10:45:32;;;;;;;9.25;2.38;;;;;;;15.99;28.39;98760.81;4972832;28;20411;-74
2022/05/04 10:48:14;;;;;;;8.73;2.65;;;;;;;15.87;28.56;98758.75;4956893;28;20074;-73
2022/05/04 10:50:47;;;;;;;9.98;2.90;;;;;;;15.77;28.45;98756.41;4957018;28;20491;-73
2022/05/04 10:53:37;;;;;;;11.02;2.92;;;;;;;15.55;28.68;98758.34;4938596;28;20051;-73
2022/05/04 10:56:05;;;;;;;12.13;2.78;;;;;;;15.38;29.13;98761.19;4954322;28;20069;-73
2022/05/04 10:58:37;;;;;;;11.88;2.67;;;;;;;15.13;29.18;98756.25;4973933;28;20058;-73
2022/05/04 11:01:06;;;;;;;7.38;2.30;;;;;;;14.94;29.12;98761.38;4954973;28;20043;-73
2022/05/04 11:03:35;;;;;;;7.97;2.08;;;;;;;14.70;29.44;98787.47;4955802;28;20130;-73
2022/05/04 11:06:08;;;;;;;;;;;;;;;14.06;31.06;98780.75;4957283;28;20047;-73
2022/05/04 11:08:36;;;;;;;32.95;2.83;;;;;;;13.71;32.28;98807.03;4939583;28;19933;-73
2022/05/04 11:11:03;;;;;;;27.58;2.60;;;;;;;13.37;33.51;98846.97;4974714;28;20101;-74
2022/05/04 11:13:31;;;;;;;18.65;2.95;;;;;;;12.97;34.44;98877.13;4942053;28;20066;-74
2022/05/04 11:16:00;;;;;;;16.48;3.08;;;;;;;12.78;36.05;98858.91;4973140;28;20574;-72
2022/05/04 11:18:28;;;;;;;8.48;2.25;;;;;;;12.63;36.50;98891.06;4973946;28;20591;-74
2022/05/04 11:20:55;;;;;;;7.70;2.13;;;;;;;12.18;38.01;98866.38;4966938;28;20054;-75
2022/05/04 11:23:25;;;;;;;6.15;1.88;;;;;;;11.98;39.12;98889.50;4931879;28;20057;-76
2022/05/04 11:25:52;;;;;;;3.72;1.40;;;;;;;11.82;39.79;98880.78;4974134;28;20134;-75
2022/05/04 11:28:19;;;;;;;2.33;1.20;;;;;;;11.67;40.53;98888.19;4944967;28;20327;-74
2022/05/04 11:30:46;;;;;;;5.78;1.40;;;;;;;11.79;40.53;98865.81;4952421;28;20046;-76
2022/05/04 11:33:13;;;;;;;4.23;1.30;;;;;;;11.80;40.75;98861.13;4972301;28;20097;-75
2022/05/04 11:35:42;;;;;;;3.80;1.30;;;;;;;11.91;40.47;98846.09;4930319;28;20309;-73
2022/05/04 11:38:16;;;;;;;5.15;1.27;;;;;;;12.32;40.34;98856.16;4967965;28;20051;-75
2022/05/04 11:40:45;;;;;;;4.00;1.33;;;;;;;12.85;39.76;98853.81;4951345;28;20059;-76
2022/05/04 11:43:21;;;;;;;3.72;1.48;;;;;;;13.60;38.81;98861.47;4957196;28;20047;-76
2022/05/04 11:45:48;;;;;;;6.38;1.80;;;;;;;14.27;37.69;98857.88;4965435;28;20035;-75
2022/05/04 11:48:17;;;;;;;7.50;1.80;;;;;;;14.92;36.80;98851.72;4971304;28;20058;-76
2022/05/04 11:50:43;;;;;;;6.00;1.95;;;;;;;15.43;35.57;98849.91;4955628;28;20054;-76
2022/05/04 11:53:09;;;;;;;4.57;1.70;;;;;;;16.06;34.04;98850.41;4932004;28;20042;-74
2022/05/04 11:55:36;;;;;;;4.53;1.60;;;;;;;16.41;33.08;98852.94;4956229;28;20067;-75
2022/05/04 11:58:07;;;;;;;10.75;2.42;;;;;;;16.94;32.23;98849.69;4972292;28;20061;-73
2022/05/04 12:00:55;;;;;;;;;;;;;;;;;;;;;
2022/05/04 12:07:51;;;;;;;5.45;1.80;;;;;;;17.43;30.88;98827.69;4929396;29;20059;-77
2022/05/04 12:10:33;;;;;;;6.40;1.65;;;;;;;17.37;30.62;98828.25;4915465;29;20051;-77